Time;durP1;ratioP1;P1;durP2;ratioP2;P2;SDS_P1;SDS_P2;PMS_P1;PMS_P2;Temp;Humidity;BMP_temperature;BMP_pressure;BME280_temperature;BME280_humidity;BME280_pressure;Samples;Min_cycle;Max_cycle;Signal;HPM_P1;HPM_P2
2023/07/07 00:00:18;;;;;;;14.43;5.00;;;;;;;13.66;100.00;101577.84;4945649;28;20044;-75
2023/07/07 00:02:45;;;;;;;11.13;4.32;;;;;;;13.58;100.00;101578.34;4944950;28;20051;-74
2023/07/07 00:05:11;;;;;;;12.45;4.45;;;;;;;13.63;100.00;101577.88;4944245;28;20062;-75
2023/07/07 00:07:38;;;;;;;14.32;4.65;;;;;;;13.57;100.00;101573.97;4942852;28;20047;-75
2023/07/07 00:10:06;;;;;;;11.35;4.80;;;;;;;13.55;100.00;101576.38;4947232;28;20161;-74
2023/07/07 00:12:32;;;;;;;9.80;4.03;;;;;;;13.50;100.00;101568.47;4948855;28;20083;-74
2023/07/07 00:14:59;;;;;;;15.77;4.60;;;;;;;13.46;100.00;101573.28;4941461;28;20082;-74
2023/07/07 00:17:26;;;;;;;16.00;4.35;;;;;;;13.42;100.00;101578.09;4944823;28;20047;-73
2023/07/07 00:19:52;;;;;;;10.95;4.43;;;;;;;13.42;100.00;101583.69;4950322;28;20054;-75
2023/07/07 00:22:19;;;;;;;10.88;4.30;;;;;;;13.39;100.00;101588.13;4946502;28;20576;-75
2023/07/07 00:24:45;;;;;;;11.43;4.50;;;;;;;13.37;100.00;101584.16;4943156;28;20074;-74
2023/07/07 00:27:12;;;;;;;11.05;4.18;;;;;;;13.36;100.00;101571.38;4945747;28;20050;-76
2023/07/07 00:29:38;;;;;;;13.05;4.97;;;;;;;13.31;100.00;101583.81;4950237;28;20561;-71
2023/07/07 00:32:05;;;;;;;10.65;4.35;;;;;;;13.28;100.00;101578.25;4950255;28;20055;-75
2023/07/07 00:34:32;;;;;;;12.95;5.05;;;;;;;13.27;100.00;101579.47;4945039;28;20058;-75
2023/07/07 00:36:58;;;;;;;14.82;5.00;;;;;;;13.26;100.00;101575.09;4941812;28;20052;-73
2023/07/07 00:39:25;;;;;;;11.60;4.53;;;;;;;13.20;100.00;101573.97;4948043;28;20059;-76
2023/07/07 00:41:51;;;;;;;10.10;4.47;;;;;;;13.19;100.00;101583.53;4942102;28;20085;-73
2023/07/07 00:44:18;;;;;;;12.68;5.22;;;;;;;13.17;100.00;101585.97;4941850;28;20569;-76
2023/07/07 00:46:44;;;;;;;14.57;4.97;;;;;;;13.16;100.00;101585.16;4941495;28;20078;-75
2023/07/07 00:49:18;;;;;;;16.50;4.95;;;;;;;13.14;100.00;101584.81;4947803;28;20506;-74
2023/07/07 00:51:56;;;;;;;13.43;4.72;;;;;;;13.13;100.00;101577.59;4938883;28;20150;-75
2023/07/07 00:54:28;;;;;;;11.90;4.72;;;;;;;13.06;100.00;101574.13;4947531;28;20050;-74
2023/07/07 00:56:55;;;;;;;13.45;5.05;;;;;;;13.07;100.00;101575.69;4950820;28;20140;-73
2023/07/07 00:59:30;;;;;;;14.50;5.38;;;;;;;13.03;100.00;101578.50;4950971;28;20459;-75
2023/07/07 01:02:02;;;;;;;14.57;5.50;;;;;;;12.98;100.00;101583.75;4943277;28;20062;-73
2023/07/07 01:04:30;;;;;;;13.90;5.47;;;;;;;12.95;100.00;101582.59;4947523;28;20565;-73
2023/07/07 01:07:02;;;;;;;15.48;5.30;;;;;;;12.93;100.00;101587.00;4949841;28;20146;-76
2023/07/07 01:09:29;;;;;;;16.23;5.22;;;;;;;12.91;100.00;101581.03;4950783;28;20134;-77
2023/07/07 01:11:56;;;;;;;12.35;5.93;;;;;;;12.91;100.00;101581.03;4950757;28;20048;-75
2023/07/07 01:14:27;;;;;;;14.05;5.03;;;;;;;12.91;100.00;101581.03;4945224;28;20043;-75
2023/07/07 01:17:06;;;;;;;14.43;5.03;;;;;;;12.89;100.00;101581.44;4949897;28;20051;-74
2023/07/07 01:20:12;;;;;;;11.90;5.15;;;;;;;12.85;100.00;101574.28;4941542;28;20078;-75
2023/07/07 01:22:54;;;;;;;12.13;4.75;;;;;;;12.82;100.00;101573.13;4964108;28;20063;-76
2023/07/07 01:25:27;;;;;;;12.82;5.10;;;;;;;12.81;100.00;101571.56;4945544;28;20134;-74
2023/07/07 01:28:08;;;;;;;13.55;5.30;;;;;;;12.83;100.00;101577.50;4950518;28;20059;-74
2023/07/07 01:30:54;;;;;;;13.20;4.97;;;;;;;12.82;100.00;101575.16;4942241;29;20147;-75
2023/07/07 01:33:25;;;;;;;13.10;5.28;;;;;;;12.80;100.00;101575.56;4946911;28;20070;-75
2023/07/07 01:35:52;;;;;;;14.05;5.50;;;;;;;12.80;100.00;101571.97;4948328;28;20087;-73
2023/07/07 01:38:43;;;;;;;13.65;5.72;;;;;;;12.77;100.00;101581.16;4947738;28;20085;-73
2023/07/07 01:41:28;;;;;;;13.35;5.25;;;;;;;12.75;100.00;101572.41;4950389;28;20059;-76
2023/07/07 01:44:12;;;;;;;15.75;5.55;;;;;;;12.74;100.00;101579.19;4946816;28;20047;-71
2023/07/07 01:47:17;;;;;;;11.18;5.00;;;;;;;12.70;100.00;101572.84;4943209;28;20055;-76
2023/07/07 01:49:52;;;;;;;11.70;5.15;;;;;;;12.66;100.00;101572.09;4949472;28;20051;-76
2023/07/07 01:52:36;;;;;;;12.82;4.80;;;;;;;12.53;100.00;101569.78;4944751;28;20247;-74
2023/07/07 01:55:09;;;;;;;16.38;5.65;;;;;;;12.52;100.00;101575.78;4946735;28;20079;-73
2023/07/07 01:57:38;;;;;;;13.88;5.57;;;;;;;12.50;100.00;101567.81;4943266;29;20051;-75
2023/07/07 02:00:05;;;;;;;14.68;4.90;;;;;;;12.48;100.00;101572.22;4949000;29;20057;-73
2023/07/07 02:02:32;;;;;;;13.35;5.25;;;;;;;12.46;100.00;101577.44;4949863;28;20086;-75
2023/07/07 02:04:58;;;;;;;12.85;5.50;;;;;;;12.45;100.00;101582.22;4945869;28;20051;-72
2023/07/07 02:07:25;;;;;;;15.48;5.85;;;;;;;12.43;100.00;101578.25;4947290;28;20054;-76
2023/07/07 02:09:52;;;;;;;13.80;5.60;;;;;;;12.41;100.00;101580.63;4950115;28;20579;-75
2023/07/07 02:12:18;;;;;;;14.45;5.40;;;;;;;12.41;100.00;101575.06;4950150;28;20130;-74
2023/07/07 02:14:45;;;;;;;12.52;5.68;;;;;;;12.40;100.00;101576.28;4951923;28;20066;-75
2023/07/07 02:17:15;;;;;;;12.35;5.70;;;;;;;12.37;100.00;101572.31;4949782;28;20131;-76
2023/07/07 02:19:42;;;;;;;11.77;5.50;;;;;;;12.36;100.00;101581.88;4954323;28;20071;-75
2023/07/07 02:22:09;;;;;;;16.33;6.07;;;;;;;12.37;100.00;101586.25;4944308;28;20086;-73
2023/07/07 02:24:36;;;;;;;12.52;5.15;;;;;;;12.37;100.00;101575.09;4949108;28;20121;-76
2023/07/07 02:27:03;;;;;;;17.75;5.93;;;;;;;12.33;100.00;101573.50;4950244;28;20047;-74
2023/07/07 02:29:29;;;;;;;15.18;6.38;;;;;;;12.30;100.00;101575.09;4945885;28;20094;-73
2023/07/07 02:31:56;;;;;;;14.75;5.93;;;;;;;12.26;100.00;101570.78;4957208;28;20102;-74
2023/07/07 02:34:23;;;;;;;16.17;5.90;;;;;;;12.25;100.00;101578.34;4950018;28;20051;-74
2023/07/07 02:36:52;;;;;;;13.25;5.32;;;;;;;12.19;100.00;101577.16;4951702;28;20067;-76
2023/07/07 02:39:18;;;;;;;13.70;5.50;;;;;;;12.22;100.00;101584.72;4952808;28;20051;-73
2023/07/07 02:41:45;;;;;;;14.05;5.78;;;;;;;12.22;100.00;101576.34;4953429;28;20079;-74
2023/07/07 02:44:12;;;;;;;16.42;5.75;;;;;;;12.16;100.00;101571.63;4948427;28;20134;-74
2023/07/07 02:46:39;;;;;;;14.48;5.78;;;;;;;12.16;100.00;101577.97;4952360;28;20078;-76
2023/07/07 02:49:05;;;;;;;15.32;5.88;;;;;;;12.15;100.00;101570.03;4950833;28;20205;-72
2023/07/07 02:51:32;;;;;;;12.40;5.30;;;;;;;12.12;100.00;101574.44;4960120;28;20144;-75
2023/07/07 02:53:58;;;;;;;13.90;5.32;;;;;;;12.11;100.00;101572.84;4953019;28;20137;-74
2023/07/07 02:56:25;;;;;;;12.00;5.85;;;;;;;12.02;100.00;101575.28;4953519;28;20110;-72
2023/07/07 02:58:53;;;;;;;14.63;6.65;;;;;;;12.00;100.00;101583.28;4948865;28;20099;-76
2023/07/07 03:01:21;;;;;;;13.82;5.63;;;;;;;12.02;100.00;101589.22;4953176;28;20495;-75
2023/07/07 03:03:49;;;;;;;12.48;5.53;;;;;;;11.97;100.00;101584.09;4953147;28;20059;-73
2023/07/07 03:06:19;;;;;;;13.63;5.18;;;;;;;11.98;100.00;101584.84;4950175;28;20819;-73
2023/07/07 03:08:47;;;;;;;16.88;5.82;;;;;;;11.94;100.00;101584.91;4949286;28;20059;-75
2023/07/07 03:11:16;;;;;;;14.43;5.40;;;;;;;11.94;100.00;101593.25;4952268;28;20043;-75
2023/07/07 03:13:45;;;;;;;12.68;5.20;;;;;;;11.90;100.00;101595.28;4952607;28;20093;-71
2023/07/07 03:16:20;;;;;;;14.48;6.10;;;;;;;11.88;100.00;101589.28;4945272;28;20111;-74
2023/07/07 03:18:49;;;;;;;17.15;6.03;;;;;;;11.87;100.00;101590.50;4951274;28;20055;-75
2023/07/07 03:21:18;;;;;;;15.75;6.10;;;;;;;11.88;100.00;101586.50;4953020;28;20114;-72
2023/07/07 03:23:44;;;;;;;18.10;6.30;;;;;;;11.85;100.00;101595.69;4949294;28;20161;-76
2023/07/07 03:26:14;;;;;;;13.27;5.82;;;;;;;11.86;100.00;101602.84;4949455;28;20055;-76
2023/07/07 03:28:41;;;;;;;10.27;4.97;;;;;;;11.88;100.00;101603.22;4951380;28;20051;-75
2023/07/07 03:31:11;;;;;;;15.48;6.25;;;;;;;11.89;100.00;101601.25;4952667;28;20134;-73
2023/07/07 03:33:39;;;;;;;12.88;5.47;;;;;;;11.83;100.00;101608.44;4952254;28;20074;-76
2023/07/07 03:36:08;;;;;;;13.98;6.00;;;;;;;11.83;100.00;101614.81;4949916;28;20106;-73
2023/07/07 03:38:34;;;;;;;15.18;6.50;;;;;;;11.79;100.00;101616.78;4951535;28;20075;-76
2023/07/07 03:41:01;;;;;;;14.43;5.80;;;;;;;11.81;100.00;101619.19;4944330;28;20051;-75
2023/07/07 03:43:28;;;;;;;11.00;5.05;;;;;;;11.77;100.00;101622.00;4951751;28;20524;-76
2023/07/07 03:45:55;;;;;;;16.08;6.22;;;;;;;11.74;100.00;101617.22;4950194;28;20143;-75
2023/07/07 03:48:21;;;;;;;17.67;5.82;;;;;;;11.73;100.00;101612.84;4950732;28;20055;-73
2023/07/07 03:50:59;;;;;;;12.15;5.82;;;;;;;11.70;100.00;101613.66;4951584;28;20142;-76
2023/07/07 03:53:28;;;;;;;12.63;5.80;;;;;;;11.72;100.00;101618.84;4950767;28;20138;-76
2023/07/07 03:55:55;;;;;;;11.85;5.68;;;;;;;11.71;100.00;101612.47;4948084;28;20110;-74
2023/07/07 03:58:23;;;;;;;14.57;6.22;;;;;;;11.69;100.00;101622.41;4951999;28;20110;-76
2023/07/07 04:00:50;;;;;;;13.57;5.68;;;;;;;11.73;100.00;101624.00;4945826;28;20510;-74
2023/07/07 04:03:18;;;;;;;11.68;5.55;;;;;;;11.72;100.00;101627.19;4944730;28;20074;-75
2023/07/07 04:05:47;;;;;;;15.75;6.95;;;;;;;11.73;100.00;101628.78;4952135;28;20138;-72
2023/07/07 04:08:21;;;;;;;18.08;5.78;;;;;;;11.77;100.00;101635.13;4951581;28;20827;-76
2023/07/07 04:11:09;;;;;;;17.30;6.10;;;;;;;11.76;100.00;101634.34;4947782;29;20075;-72
2023/07/07 04:13:38;;;;;;;15.88;6.22;;;;;;;11.81;100.00;101636.69;4941841;28;20167;-73
2023/07/07 04:16:12;;;;;;;15.73;6.15;;;;;;;11.82;100.00;101629.91;4946834;28;20061;-74
2023/07/07 04:18:40;;;;;;;14.63;5.80;;;;;;;11.86;100.00;101629.91;4951783;28;20573;-71
2023/07/07 04:21:12;;;;;;;15.40;6.13;;;;;;;11.87;100.00;101634.28;4951979;28;20055;-75
2023/07/07 04:23:42;;;;;;;13.70;5.80;;;;;;;11.87;100.00;101634.28;4949905;28;20537;-75
2023/07/07 04:26:09;;;;;;;14.95;6.40;;;;;;;11.91;100.00;101629.47;4942680;28;20079;-74
2023/07/07 04:28:37;;;;;;;13.27;5.93;;;;;;;11.91;100.00;101623.91;4943201;28;20139;-74
2023/07/07 04:31:07;;;;;;;14.75;6.28;;;;;;;11.85;100.00;101620.75;4951521;28;20089;-74
2023/07/07 04:33:35;;;;;;;12.95;6.78;;;;;;;11.92;100.00;101625.53;4953771;28;20050;-74
2023/07/07 04:36:04;;;;;;;14.15;6.03;;;;;;;11.95;100.00;101631.06;4957141;28;20146;-73
2023/07/07 04:38:32;;;;;;;15.23;6.45;;;;;;;11.95;100.00;101639.41;4948146;28;20121;-75
2023/07/07 04:41:07;;;;;;;13.88;6.10;;;;;;;12.05;100.00;101635.78;4947121;28;20059;-76
2023/07/07 04:43:36;;;;;;;15.95;6.82;;;;;;;12.06;100.00;101626.22;4949918;28;20510;-76
2023/07/07 04:46:03;;;;;;;14.93;6.35;;;;;;;12.16;100.00;101635.75;4949816;28;20071;-75
2023/07/07 04:48:30;;;;;;;12.15;5.72;;;;;;;12.21;100.00;101633.31;4957127;28;20071;-76
2023/07/07 04:50:59;;;;;;;18.35;6.03;;;;;;;12.28;100.00;101643.63;4950472;28;20075;-74
2023/07/07 04:53:28;;;;;;;15.07;6.40;;;;;;;12.35;100.00;101640.81;4958325;28;20047;-76
2023/07/07 04:55:56;;;;;;;13.30;6.25;;;;;;;12.39;100.00;101627.69;4954486;28;20794;-76
2023/07/07 04:58:27;;;;;;;14.98;6.20;;;;;;;12.49;100.00;101638.75;4939056;28;20060;-73
2023/07/07 05:01:11;;;;;;;14.07;6.28;;;;;;;12.57;100.00;101638.72;4964228;28;20130;-75
2023/07/07 05:03:39;;;;;;;15.27;7.03;;;;;;;12.65;100.00;101635.47;4944132;29;20398;-75
2023/07/07 05:06:07;;;;;;;12.52;5.22;;;;;;;12.74;100.00;101637.78;4950452;28;20055;-76
2023/07/07 05:08:37;;;;;;;15.35;6.43;;;;;;;12.79;100.00;101632.56;4950902;28;20137;-73
2023/07/07 05:11:04;;;;;;;16.27;5.57;;;;;;;12.91;100.00;101640.44;4944529;28;20052;-73
2023/07/07 05:13:31;;;;;;;12.52;5.50;;;;;;;13.01;100.00;101635.97;4946803;28;20138;-73
2023/07/07 05:16:04;;;;;;;19.17;7.18;;;;;;;13.11;100.00;101640.66;4946398;28;20051;-72
2023/07/07 05:18:31;;;;;;;12.98;5.93;;;;;;;13.20;100.00;101632.59;4956048;28;20058;-73
2023/07/07 05:20:58;;;;;;;13.95;6.18;;;;;;;13.26;100.00;101620.56;4947859;28;20151;-72
2023/07/07 05:23:29;;;;;;;18.73;6.65;;;;;;;13.41;100.00;101629.59;4942543;28;20063;-73
2023/07/07 05:25:56;;;;;;;14.48;5.78;;;;;;;13.51;100.00;101637.09;4943030;28;20047;-76
2023/07/07 05:28:22;;;;;;;20.92;7.95;;;;;;;13.64;100.00;101647.31;4943989;28;20138;-76
2023/07/07 05:30:49;;;;;;;13.30;5.53;;;;;;;13.76;100.00;101654.38;4945487;28;20178;-75
2023/07/07 05:33:15;;;;;;;16.88;5.20;;;;;;;13.87;100.00;101655.84;4951100;28;20093;-75
2023/07/07 05:35:50;;;;;;;12.68;6.18;;;;;;;13.99;100.00;101657.28;4961352;28;20065;-75
2023/07/07 05:38:17;;;;;;;15.65;5.28;;;;;;;14.11;100.00;101651.94;4957132;28;20142;-74
2023/07/07 05:40:45;;;;;;;10.63;4.95;;;;;;;14.22;100.00;101649.78;4969519;28;20544;-74
2023/07/07 05:43:16;;;;;;;15.65;5.65;;;;;;;14.34;100.00;101651.22;4948294;28;20155;-74
2023/07/07 05:45:43;;;;;;;13.13;4.93;;;;;;;14.44;100.00;101656.72;4944280;28;20571;-73
2023/07/07 05:48:11;;;;;;;14.50;5.60;;;;;;;14.54;100.00;101644.56;4955267;28;20416;-76
2023/07/07 05:50:38;;;;;;;14.75;4.85;;;;;;;14.65;100.00;101650.03;4962342;28;20493;-76
2023/07/07 05:53:05;;;;;;;17.88;5.68;;;;;;;14.77;100.00;101646.63;4946412;28;20059;-76
2023/07/07 05:55:34;;;;;;;14.15;5.07;;;;;;;14.88;100.00;101641.63;4949223;28;20093;-72
2023/07/07 05:58:01;;;;;;;13.50;4.80;;;;;;;14.98;100.00;101641.47;4938896;28;20067;-75
2023/07/07 06:00:30;;;;;;;14.55;5.32;;;;;;;15.10;100.00;101644.88;4957965;28;20054;-76
2023/07/07 06:02:57;;;;;;;12.07;4.63;;;;;;;15.19;100.00;101643.09;4969237;28;20113;-73
2023/07/07 06:05:25;;;;;;;9.65;4.57;;;;;;;15.31;100.00;101642.47;4948019;28;20066;-69
2023/07/07 06:07:52;;;;;;;12.13;4.40;;;;;;;15.41;100.00;101638.72;4961074;28;20050;-72
2023/07/07 06:10:19;;;;;;;12.05;4.38;;;;;;;15.50;100.00;101632.56;4944103;28;20059;-72
2023/07/07 06:12:45;;;;;;;14.50;4.95;;;;;;;15.62;100.00;101629.09;4946404;28;20083;-71
2023/07/07 06:15:12;;;;;;;12.20;4.30;;;;;;;15.72;100.00;101640.13;4943637;28;20094;-69
2023/07/07 06:17:39;;;;;;;14.82;4.57;;;;;;;15.83;100.00;101635.09;4941575;28;20850;-71
2023/07/07 06:20:06;;;;;;;12.82;4.47;;;;;;;15.92;100.00;101635.31;4949772;28;20051;-71
2023/07/07 06:22:32;;;;;;;9.30;4.70;;;;;;;16.06;100.00;101642.63;4948562;28;20129;-71
2023/07/07 06:25:00;;;;;;;13.55;4.30;;;;;;;16.17;100.00;101646.78;4944346;28;20478;-72
2023/07/07 06:27:27;;;;;;;12.02;4.10;;;;;;;16.30;100.00;101644.16;4940732;28;20110;-70
2023/07/07 06:29:53;;;;;;;12.68;3.92;;;;;;;16.41;100.00;101642.66;4936661;28;20150;-71
2023/07/07 06:32:20;;;;;;;10.23;4.00;;;;;;;16.52;100.00;101643.22;4955721;28;20138;-71
2023/07/07 06:34:46;;;;;;;11.05;4.15;;;;;;;16.63;100.00;101649.38;4954586;28;20611;-71
2023/07/07 06:37:13;;;;;;;10.38;3.92;;;;;;;16.75;100.00;101645.09;4945528;28;20103;-70
2023/07/07 06:39:40;;;;;;;12.57;3.35;;;;;;;16.88;100.00;101645.97;4961117;28;20055;-70
2023/07/07 06:42:08;;;;;;;14.65;4.03;;;;;;;16.97;100.00;101648.94;4953337;28;20055;-68
2023/07/07 06:44:38;;;;;;;9.05;3.40;;;;;;;17.10;100.00;101639.38;4947025;28;20082;-70
2023/07/07 06:47:05;;;;;;;17.00;3.92;;;;;;;17.23;100.00;101645.91;4949480;28;20047;-71
2023/07/07 06:49:32;;;;;;;11.52;3.30;;;;;;;17.36;100.00;101646.72;4943950;28;20062;-72
2023/07/07 06:51:58;;;;;;;9.18;2.83;;;;;;;17.47;100.00;101649.28;4947236;28;20047;-70
2023/07/07 06:54:25;;;;;;;16.20;3.40;;;;;;;17.61;100.00;101645.28;4943758;28;20071;-72
2023/07/07 06:56:51;;;;;;;9.35;3.22;;;;;;;17.71;100.00;101642.16;4955406;28;20470;-72
2023/07/07 06:59:18;;;;;;;9.43;2.92;;;;;;;17.84;100.00;101643.00;4950694;28;20051;-71
2023/07/07 07:01:45;;;;;;;6.15;2.83;;;;;;;17.98;100.00;101650.25;4951300;28;20903;-70
2023/07/07 07:04:11;;;;;;;10.45;3.00;;;;;;;18.07;100.00;101651.22;4961087;28;20568;-71
2023/07/07 07:06:41;;;;;;;11.38;3.35;;;;;;;18.14;100.00;101650.19;4954082;28;20138;-72
2023/07/07 07:09:09;;;;;;;7.45;2.95;;;;;;;18.26;100.00;101653.03;4952817;28;20082;-68
2023/07/07 07:11:35;;;;;;;7.00;2.67;;;;;;;18.39;100.00;101650.25;4946220;28;20110;-71
2023/07/07 07:14:02;;;;;;;9.38;3.00;;;;;;;18.48;100.00;101653.97;4945364;28;20055;-76
2023/07/07 07:16:28;;;;;;;12.35;3.00;;;;;;;18.60;100.00;101649.56;4951253;28;20044;-71
2023/07/07 07:18:55;;;;;;;9.05;3.35;;;;;;;18.70;100.00;101648.44;4951317;28;20057;-75
2023/07/07 07:21:21;;;;;;;8.88;2.50;;;;;;;18.80;100.00;101648.13;4948278;28;20098;-74
2023/07/07 07:23:50;;;;;;;8.70;3.00;;;;;;;18.91;100.00;101650.59;4958074;28;20134;-74
2023/07/07 07:26:18;;;;;;;9.63;2.90;;;;;;;19.00;100.00;101645.84;4945344;28;20486;-74
2023/07/07 07:28:44;;;;;;;9.32;2.90;;;;;;;19.13;100.00;101657.09;4951416;28;20573;-74
2023/07/07 07:31:12;;;;;;;13.73;3.50;;;;;;;19.23;100.00;101653.91;4949816;28;20573;-72
2023/07/07 07:33:39;;;;;;;8.77;2.88;;;;;;;19.32;100.00;101656.84;4950316;28;20591;-72
2023/07/07 07:36:05;;;;;;;8.88;2.63;;;;;;;19.39;100.00;101639.66;4966045;28;20532;-71
2023/07/07 07:38:32;;;;;;;11.20;2.97;;;;;;;19.47;100.00;101648.66;4962638;28;20059;-72
2023/07/07 07:40:58;;;;;;;7.60;3.05;;;;;;;19.57;100.00;101650.31;4959373;28;20137;-70
2023/07/07 07:43:25;;;;;;;9.35;2.75;;;;;;;19.67;100.00;101647.13;4945525;28;20078;-70
2023/07/07 07:45:54;;;;;;;8.50;2.97;;;;;;;19.81;100.00;101654.28;4963686;28;20054;-70
2023/07/07 07:48:21;;;;;;;13.23;3.63;;;;;;;19.90;100.00;101645.09;4947161;28;21191;-72
2023/07/07 07:50:47;;;;;;;7.80;2.60;;;;;;;20.00;100.00;101653.19;4951719;28;20459;-71
2023/07/07 07:53:14;;;;;;;4.43;2.15;;;;;;;20.12;100.00;101657.19;4951304;28;20059;-70
2023/07/07 07:55:40;;;;;;;9.25;2.70;;;;;;;20.23;100.00;101652.72;4952123;28;20743;-72
2023/07/07 07:58:07;;;;;;;9.55;2.90;;;;;;;20.30;100.00;101655.28;4945152;28;20065;-71
2023/07/07 08:00:33;;;;;;;10.70;2.40;;;;;;;20.38;100.00;101659.38;4952438;28;20097;-70
2023/07/07 08:03:01;;;;;;;8.68;2.88;;;;;;;20.47;100.00;101659.44;4953278;28;20140;-75
2023/07/07 08:05:28;;;;;;;6.90;2.70;;;;;;;20.57;100.00;101657.44;4956942;28;20142;-72
2023/07/07 08:07:54;;;;;;;12.48;3.08;;;;;;;20.65;100.00;101656.69;4951893;28;20075;-71
2023/07/07 08:10:20;;;;;;;8.35;2.55;;;;;;;20.74;100.00;101662.38;4948450;28;20153;-72
2023/07/07 08:12:47;;;;;;;12.07;3.10;;;;;;;20.84;100.00;101658.34;4948423;28;20462;-71
2023/07/07 08:15:13;;;;;;;10.05;2.70;;;;;;;20.97;100.00;101669.56;4942817;28;20142;-72
2023/07/07 08:17:40;;;;;;;9.75;2.97;;;;;;;21.09;100.00;101669.44;4949391;28;20051;-71
2023/07/07 08:20:15;;;;;;;8.52;2.65;;;;;;;21.21;100.00;101668.53;4957377;28;20059;-69
2023/07/07 08:22:42;;;;;;;7.95;2.47;;;;;;;21.29;100.00;101666.94;4948088;28;20059;-71
2023/07/07 08:25:09;;;;;;;7.13;2.40;;;;;;;21.42;100.00;101672.47;4940806;28;20538;-71
2023/07/07 08:27:36;;;;;;;6.63;2.47;;;;;;;21.51;100.00;101670.44;4948538;28;20055;-74
2023/07/07 08:30:05;;;;;;;7.97;2.45;;;;;;;21.59;100.00;101679.41;4959118;28;20729;-70
2023/07/07 08:32:32;;;;;;;6.78;2.28;;;;;;;21.71;100.00;101672.84;4957007;28;20059;-71
2023/07/07 08:34:59;;;;;;;5.40;2.40;;;;;;;21.76;100.00;101673.00;4939449;28;20051;-71
2023/07/07 08:37:28;;;;;;;4.10;2.03;;;;;;;21.81;100.00;101672.34;4946071;28;20046;-70
2023/07/07 08:39:55;;;;;;;7.50;2.28;;;;;;;21.90;100.00;101665.88;4956026;28;20581;-72
2023/07/07 08:42:30;;;;;;;12.02;3.05;;;;;;;21.94;100.00;101666.53;4945405;28;20084;-72
2023/07/07 08:45:00;;;;;;;7.25;2.30;;;;;;;22.03;100.00;101666.50;4947007;28;20055;-72
2023/07/07 08:47:46;;;;;;;7.93;2.80;;;;;;;22.17;100.00;101668.69;4966872;28;20498;-71
2023/07/07 08:50:29;;;;;;;14.13;2.70;;;;;;;22.33;100.00;101664.75;4950945;28;20058;-71
2023/07/07 08:53:05;;;;;;;8.95;2.90;;;;;;;22.42;100.00;101659.06;4958461;28;20059;-70
2023/07/07 08:55:55;;;;;;;7.70;2.67;;;;;;;22.61;100.00;101666.25;4947058;28;20142;-71
2023/07/07 08:58:37;;;;;;;9.30;2.60;;;;;;;22.76;100.00;101670.72;4948500;28;20102;-71
2023/07/07 09:01:07;;;;;;;6.63;2.60;;;;;;;22.91;100.00;101668.75;4950827;28;20106;-73
2023/07/07 09:04:03;;;;;;;7.88;2.33;;;;;;;23.00;100.00;101667.94;4949435;28;20690;-70
2023/07/07 09:06:46;;;;;;;7.85;2.05;;;;;;;23.08;100.00;101664.28;4945008;28;20047;-72
2023/07/07 09:09:44;;;;;;;7.35;2.33;;;;;;;23.10;100.00;101666.63;4957707;28;20141;-71
2023/07/07 09:12:29;;;;;;;15.13;2.92;;;;;;;23.22;100.00;101671.31;4946101;28;20082;-70
2023/07/07 09:15:01;;;;;;;6.00;2.20;;;;;;;23.25;100.00;101656.94;4950697;28;20078;-69
2023/07/07 09:17:37;;;;;;;10.93;2.42;;;;;;;23.22;100.00;101651.44;4952679;28;20070;-69
2023/07/07 09:20:06;;;;;;;8.50;3.03;;;;;;;23.29;100.00;101648.25;4961985;28;20059;-71
2023/07/07 09:22:43;;;;;;;4.53;2.28;;;;;;;23.43;100.00;101647.50;4942612;28;20118;-69
2023/07/07 09:25:35;;;;;;;15.00;2.80;;;;;;;23.58;100.00;101643.44;4947316;28;20055;-71
2023/07/07 09:28:17;;;;;;;6.88;2.33;;;;;;;23.67;100.00;101656.78;4959936;28;20094;-71
2023/07/07 09:30:52;;;;;;;6.28;2.35;;;;;;;23.74;100.00;101651.53;4958114;28;20066;-69
2023/07/07 09:33:21;;;;;;;5.55;2.20;;;;;;;23.73;100.00;101652.03;4954020;28;20492;-69
2023/07/07 09:36:05;;;;;;;7.45;2.33;;;;;;;23.83;100.00;101654.28;4938971;28;20055;-70
2023/07/07 09:38:56;;;;;;;8.73;2.60;;;;;;;23.88;100.00;101650.78;4947182;28;20079;-71
2023/07/07 09:41:50;;;;;;;11.65;2.83;;;;;;;23.97;100.00;101655.56;4960808;28;20190;-72
2023/07/07 09:44:19;;;;;;;7.05;2.58;;;;;;;24.07;100.00;101643.63;4950648;28;20058;-71
2023/07/07 09:46:49;;;;;;;7.85;2.55;;;;;;;24.18;100.00;101648.72;4942882;28;20142;-72
2023/07/07 09:49:36;;;;;;;5.03;2.35;;;;;;;24.31;100.00;101640.72;4949790;28;20047;-73
2023/07/07 09:52:40;;;;;;;10.32;2.75;;;;;;;24.43;100.00;101648.13;4946035;28;20050;-73
2023/07/07 09:55:28;;;;;;;5.88;2.63;;;;;;;24.52;99.54;101639.50;4956840;28;20133;-75
2023/07/07 09:58:13;;;;;;;4.78;2.17;;;;;;;24.59;98.60;101633.41;4945162;29;20051;-69
2023/07/07 10:00:42;;;;;;;6.95;3.05;;;;;;;24.64;96.97;101629.91;4957225;28;20055;-71
2023/07/07 10:03:38;;;;;;;8.60;2.58;;;;;;;24.73;96.29;101635.44;4950898;28;20059;-71
2023/07/07 10:06:27;;;;;;;8.57;2.70;;;;;;;24.82;95.69;101638.19;4950252;28;20113;-70
2023/07/07 10:08:53;;;;;;;5.88;2.67;;;;;;;24.88;94.27;101641.13;4943163;28;20391;-73
2023/07/07 10:11:33;;;;;;;5.22;2.10;;;;;;;24.89;91.44;101639.84;4958384;28;20072;-72
2023/07/07 10:14:20;;;;;;;5.97;2.35;;;;;;;24.87;92.14;101642.41;4961050;28;20073;-71
2023/07/07 10:17:08;;;;;;;6.10;2.40;;;;;;;24.82;90.14;101638.19;4955827;28;20114;-73
2023/07/07 10:20:05;;;;;;;7.35;2.78;;;;;;;24.98;91.35;101636.88;4950657;28;20051;-72
2023/07/07 10:22:34;;;;;;;5.82;2.50;;;;;;;24.99;89.61;101632.75;4947249;28;20052;-72
2023/07/07 10:25:04;;;;;;;7.15;2.47;;;;;;;25.19;93.95;101636.41;4956653;28;20086;-72
2023/07/07 10:27:31;;;;;;;7.30;2.33;;;;;;;25.39;91.81;101636.41;4959555;28;20444;-72
2023/07/07 10:30:03;;;;;;;8.68;2.75;;;;;;;25.57;91.28;101632.47;4954187;28;20099;-72
2023/07/07 10:32:30;;;;;;;8.80;2.53;;;;;;;25.66;90.39;101630.28;4949329;28;20055;-73
2023/07/07 10:34:58;;;;;;;5.05;2.22;;;;;;;25.76;88.56;101625.19;4947966;28;20056;-73
2023/07/07 10:37:29;;;;;;;6.20;2.20;;;;;;;25.83;88.96;101621.91;4961013;28;20101;-73
2023/07/07 10:39:57;;;;;;;10.93;2.75;;;;;;;25.89;87.19;101625.59;4956251;28;20057;-72
2023/07/07 10:42:25;;;;;;;8.27;2.88;;;;;;;25.97;88.91;101621.81;4956538;28;20724;-72
2023/07/07 10:44:54;;;;;;;6.78;3.03;;;;;;;26.09;90.58;101612.09;4967305;28;20066;-71
2023/07/07 10:47:26;;;;;;;7.32;2.60;;;;;;;26.25;88.89;101616.38;4961677;28;20138;-72
2023/07/07 10:49:53;;;;;;;5.35;2.55;;;;;;;26.35;86.74;101606.34;4958543;28;20066;-70
2023/07/07 10:52:29;;;;;;;5.90;2.67;;;;;;;26.40;84.40;101608.47;4951572;28;20062;-71
2023/07/07 10:55:17;;;;;;;5.25;2.38;;;;;;;26.39;79.65;101615.47;4931238;29;20519;-71
2023/07/07 10:57:58;;;;;;;6.55;2.80;;;;;;;26.39;79.85;101613.38;4928709;29;20051;-70
2023/07/07 11:00:59;;;;;;;7.47;2.72;;;;;;;26.56;80.23;101605.72;4929805;29;20105;-72
2023/07/07 11:03:44;;;;;;;7.53;2.92;;;;;;;26.73;77.04;101609.50;4928772;29;20052;-71
2023/07/07 11:06:26;;;;;;;16.95;5.45;;;;;;;26.84;78.07;101608.81;4929655;29;20051;-72
2023/07/07 11:09:22;;;;;;;9.68;2.70;;;;;;;26.95;80.56;101616.63;4919069;29;21594;-70
2023/07/07 11:11:49;;;;;;;5.85;2.33;;;;;;;26.80;77.72;101601.78;4917137;29;20562;-71
2023/07/07 11:14:30;;;;;;;7.07;2.90;;;;;;;26.86;77.18;101596.88;4945836;28;20462;-72
2023/07/07 11:17:19;;;;;;;7.30;2.47;;;;;;;27.09;76.96;101601.41;4941134;28;20118;-72
2023/07/07 11:20:14;;;;;;;8.35;3.22;;;;;;;27.11;75.33;101605.31;4944080;28;20533;-71
2023/07/07 11:22:57;;;;;;;7.35;2.25;;;;;;;27.13;73.38;101597.00;4940501;28;20047;-71
2023/07/07 11:25:46;;;;;;;6.72;2.70;;;;;;;27.21;71.48;101603.03;4943161;28;20047;-70
2023/07/07 11:28:13;;;;;;;6.10;2.38;;;;;;;26.98;69.77;101589.94;4942508;28;20071;-72
2023/07/07 11:30:43;;;;;;;6.88;3.20;;;;;;;26.70;70.91;101589.78;4945185;28;20043;-71